createdAt,value
2023-03-20T00:00:59.288Z,83.44
2023-03-20T00:03:26.412Z,84.99
2023-03-20T00:05:53.241Z,84.88
2023-03-20T00:08:19.675Z,84.59
2023-03-20T00:10:46.888Z,84.40
2023-03-20T00:13:25.338Z,84.28
2023-03-20T00:15:52.064Z,83.73
2023-03-20T00:18:21.740Z,83.88
2023-03-20T00:20:48.646Z,83.08
2023-03-20T00:23:16.685Z,83.04
2023-03-20T00:25:45.383Z,82.92
2023-03-20T00:28:41.742Z,82.14
2023-03-20T00:31:26.625Z,82.43
2023-03-20T00:33:56.116Z,82.61
2023-03-20T00:36:23.443Z,82.73
2023-03-20T00:38:50.754Z,83.30
2023-03-20T00:41:28.174Z,83.44
2023-03-20T00:44:05.273Z,83.41
2023-03-20T00:46:38.354Z,83.46
2023-03-20T00:49:06.423Z,83.33
2023-03-20T00:51:32.837Z,83.53
2023-03-20T00:53:59.313Z,83.30
2023-03-20T00:56:33.263Z,82.98
2023-03-20T00:59:02.550Z,84.70
2023-03-20T01:01:30.907Z,85.21
2023-03-20T01:03:58.790Z,85.98
2023-03-20T01:06:25.246Z,87.41
2023-03-20T01:08:51.782Z,87.92
2023-03-20T01:11:23.341Z,87.53
2023-03-20T01:13:52.166Z,87.97
2023-03-20T01:16:24.521Z,87.59
2023-03-20T01:18:51.856Z,88.06
2023-03-20T01:21:19.450Z,88.21
2023-03-20T01:23:46.283Z,87.29
2023-03-20T01:26:22.526Z,87.94
2023-03-20T01:28:50.688Z,88.10
2023-03-20T01:31:18.697Z,87.60
2023-03-20T01:33:46.682Z,87.57
2023-03-20T01:36:15.341Z,87.60
2023-03-20T01:38:42.523Z,86.97
2023-03-20T01:41:16.707Z,87.29
2023-03-20T01:43:44.866Z,86.77
2023-03-20T01:46:40.559Z,86.88
2023-03-20T01:49:18.876Z,86.75
2023-03-20T01:51:47.367Z,86.22
2023-03-20T01:54:24.325Z,87.00
2023-03-20T01:57:18.253Z,87.04
2023-03-20T01:59:49.838Z,86.67
2023-03-20T02:02:21.254Z,87.22
2023-03-20T02:04:52.092Z,87.17
2023-03-20T02:07:21.440Z,87.61
2023-03-20T02:10:06.704Z,87.05
2023-03-20T02:12:42.181Z,87.52
2023-03-20T02:15:12.454Z,87.09
2023-03-20T02:18:07.885Z,87.04
2023-03-20T02:21:03.043Z,86.97
2023-03-20T02:23:58.214Z,87.13
2023-03-20T02:27:20.196Z,86.94
2023-03-20T02:30:01.664Z,86.15
2023-03-20T02:32:49.582Z,86.48
2023-03-20T02:35:45.754Z,86.24
2023-03-20T02:38:49.202Z,86.47
2023-03-20T02:41:37.998Z,86.41
2023-03-20T02:44:04.462Z,87.00
2023-03-20T02:46:55.058Z,86.71
2023-03-20T02:49:52.873Z,86.58
2023-03-20T02:52:44.369Z,86.69
2023-03-20T02:55:35.605Z,86.81
2023-03-20T02:58:35.352Z,86.68
2023-03-20T03:01:11.414Z,86.76
2023-03-20T03:03:48.676Z,87.09
2023-03-20T03:06:24.392Z,86.55
2023-03-20T03:08:57.941Z,86.48
2023-03-20T03:11:24.530Z,86.73
2023-03-20T03:13:56.189Z,86.74
2023-03-20T03:16:45.300Z,86.73
2023-03-20T03:19:31.931Z,86.13
2023-03-20T03:21:58.664Z,86.62
2023-03-20T03:24:39.760Z,86.33
2023-03-20T03:27:31.745Z,86.31
2023-03-20T03:30:07.694Z,86.59
2023-03-20T03:32:36.628Z,86.69
2023-03-20T03:35:05.459Z,86.48
2023-03-20T03:37:47.037Z,86.28
2023-03-20T03:40:32.417Z,86.56
2023-03-20T03:43:31.163Z,86.37
2023-03-20T03:46:07.312Z,86.23
2023-03-20T03:48:39.043Z,86.50
2023-03-20T03:51:14.328Z,86.26
2023-03-20T03:53:59.371Z,85.80
2023-03-20T03:56:29.052Z,85.83
2023-03-20T03:59:00.786Z,86.09
2023-03-20T04:01:29.547Z,85.96
2023-03-20T04:04:01.052Z,85.88
2023-03-20T04:06:28.246Z,86.05
2023-03-20T04:08:55.707Z,86.04
2023-03-20T04:11:25.202Z,85.31
2023-03-20T04:13:52.951Z,86.21
2023-03-20T04:16:22.538Z,85.84
2023-03-20T04:18:50.561Z,86.03
2023-03-20T04:21:18.570Z,86.01
2023-03-20T04:23:45.627Z,86.52
2023-03-20T04:26:12.649Z,86.16
2023-03-20T04:28:40.269Z,86.10
2023-03-20T04:31:25.518Z,86.37
2023-03-20T04:34:04.496Z,86.18
2023-03-20T04:36:44.002Z,86.36
2023-03-20T04:39:12.881Z,86.13
2023-03-20T04:41:40.197Z,86.03
2023-03-20T04:44:07.142Z,86.08
2023-03-20T04:46:34.859Z,86.51
2023-03-20T04:49:04.058Z,86.19
2023-03-20T04:51:30.576Z,86.24
2023-03-20T04:53:57.695Z,86.06
2023-03-20T04:56:24.407Z,85.99
2023-03-20T04:58:52.758Z,86.47
2023-03-20T05:01:21.296Z,86.15
2023-03-20T05:03:47.929Z,86.13
2023-03-20T05:06:14.678Z,86.24
2023-03-20T05:08:43.276Z,86.50
2023-03-20T05:11:10.376Z,85.94
2023-03-20T05:14:01.932Z,86.00
2023-03-20T05:16:49.924Z,86.20
2023-03-20T05:19:45.313Z,86.48
2023-03-20T05:22:18.134Z,85.94
2023-03-20T05:25:06.054Z,86.02
2023-03-20T05:27:58.341Z,86.55
2023-03-20T05:30:31.138Z,86.28
2023-03-20T05:33:16.256Z,86.69
2023-03-20T05:35:53.687Z,86.57
2023-03-20T05:38:33.907Z,86.22
2023-03-20T05:41:24.009Z,86.75
2023-03-20T05:44:07.946Z,86.49
2023-03-20T05:46:45.710Z,86.73
2023-03-20T05:49:21.375Z,86.57
2023-03-20T05:52:15.593Z,86.61
2023-03-20T05:55:14.971Z,86.91
2023-03-20T05:57:52.817Z,86.69
2023-03-20T06:00:38.696Z,86.87
2023-03-20T06:03:24.104Z,86.48
2023-03-20T06:06:07.586Z,87.33
2023-03-20T06:08:36.798Z,86.88
2023-03-20T06:11:04.045Z,87.37
2023-03-20T06:13:32.596Z,87.03
2023-03-20T06:16:00.845Z,87.33
2023-03-20T06:18:28.230Z,87.26
2023-03-20T06:20:57.526Z,87.12
2023-03-20T06:23:26.061Z,87.07
2023-03-20T06:25:53.086Z,86.96
2023-03-20T06:28:21.698Z,87.12
2023-03-20T06:30:54.974Z,86.79
2023-03-20T06:33:24.090Z,86.74
2023-03-20T06:36:02.335Z,86.73
2023-03-20T06:38:31.688Z,87.24
2023-03-20T06:41:05.174Z,87.08
2023-03-20T06:43:32.227Z,87.26
2023-03-20T06:45:59.499Z,87.27
2023-03-20T06:48:28.714Z,87.66
2023-03-20T06:50:55.583Z,87.68
2023-03-20T06:53:27.142Z,87.47
2023-03-20T06:56:19.674Z,87.42
2023-03-20T06:58:46.320Z,87.40
2023-03-20T07:01:16.662Z,87.61
2023-03-20T07:03:44.085Z,87.20
2023-03-20T07:06:12.040Z,88.04
2023-03-20T07:08:39.484Z,87.68
2023-03-20T07:11:06.494Z,87.27
2023-03-20T07:13:33.736Z,87.50
2023-03-20T07:16:08.937Z,87.23
2023-03-20T07:18:40.108Z,87.36
2023-03-20T07:21:07.949Z,87.20
2023-03-20T07:23:35.051Z,87.30
2023-03-20T07:26:03.576Z,87.08
2023-03-20T07:28:30.554Z,87.49
2023-03-20T07:31:19.475Z,86.93
2023-03-20T07:33:47.031Z,87.45
2023-03-20T07:36:13.514Z,87.44
2023-03-20T07:38:40.370Z,87.06
2023-03-20T07:41:10.478Z,87.17
2023-03-20T07:43:40.075Z,86.84
2023-03-20T07:46:35.685Z,96.37
2023-03-20T07:49:02.100Z,94.10
2023-03-20T07:51:28.762Z,84.75
2023-03-20T07:53:56.502Z,83.15
2023-03-20T07:56:22.909Z,83.36
2023-03-20T07:58:49.438Z,83.87
2023-03-20T08:01:15.879Z,84.44
2023-03-20T08:03:42.396Z,84.80
2023-03-20T08:06:09.662Z,85.29
2023-03-20T08:08:36.350Z,85.48
2023-03-20T08:11:02.776Z,85.56
2023-03-20T08:13:29.234Z,85.66
2023-03-20T08:15:55.738Z,85.99
2023-03-20T08:18:22.448Z,86.63
2023-03-20T08:20:50.201Z,86.57
2023-03-20T08:23:20.078Z,86.74
2023-03-20T08:25:51.357Z,86.44
2023-03-20T08:28:18.631Z,86.47
2023-03-20T08:30:45.078Z,86.13
2023-03-20T08:33:12.341Z,85.69
2023-03-20T08:35:39.154Z,85.30
2023-03-20T08:38:06.178Z,85.46
2023-03-20T08:40:32.879Z,85.26
2023-03-20T08:42:59.528Z,85.43
2023-03-20T08:45:26.201Z,85.39
2023-03-20T08:47:53.288Z,85.02
2023-03-20T08:50:19.857Z,84.69
2023-03-20T08:52:46.954Z,84.62
2023-03-20T08:55:14.768Z,84.64
2023-03-20T08:57:41.894Z,84.29
2023-03-20T09:00:10.583Z,83.85
2023-03-20T09:02:37.403Z,84.01
2023-03-20T09:05:04.144Z,84.44
2023-03-20T09:07:30.530Z,83.10
2023-03-20T09:09:56.922Z,82.78
2023-03-20T09:12:23.630Z,81.63
2023-03-20T09:14:50.031Z,81.32
2023-03-20T09:17:17.034Z,81.05
2023-03-20T09:19:44.736Z,80.75
2023-03-20T09:22:13.914Z,79.27
2023-03-20T09:24:40.869Z,78.49
2023-03-20T09:27:07.318Z,77.67
2023-03-20T09:29:33.711Z,75.09
2023-03-20T09:32:00.514Z,73.16
2023-03-20T09:34:26.999Z,72.73
2023-03-20T09:36:53.394Z,71.19
2023-03-20T09:39:19.911Z,71.59
2023-03-20T09:41:56.752Z,72.14
2023-03-20T09:44:40.080Z,71.28
2023-03-20T09:47:22.501Z,70.69
2023-03-20T09:50:25.867Z,70.33
2023-03-20T09:53:06.897Z,68.83
2023-03-20T09:55:40.023Z,68.68
2023-03-20T09:58:18.293Z,68.89
2023-03-20T10:00:46.477Z,65.55
2023-03-20T10:03:21.530Z,64.15
2023-03-20T10:05:54.286Z,64.04
2023-03-20T10:08:25.855Z,61.73
2023-03-20T10:11:01.680Z,60.87
2023-03-20T10:13:37.057Z,61.14
2023-03-20T10:16:38.848Z,60.17
2023-03-20T10:19:28.513Z,59.38
2023-03-20T10:22:47.714Z,57.51
2023-03-20T10:25:35.634Z,57.03
2023-03-20T10:28:05.998Z,55.09
2023-03-20T10:30:44.469Z,55.33
2023-03-20T10:33:28.954Z,54.80
2023-03-20T10:36:25.671Z,54.50
2023-03-20T10:39:09.767Z,54.26
2023-03-20T10:41:39.082Z,54.48
2023-03-20T10:44:22.407Z,54.63
2023-03-20T10:46:53.583Z,54.34
2023-03-20T10:49:41.074Z,54.80
2023-03-20T10:52:14.765Z,54.64
2023-03-20T10:54:45.793Z,54.44
2023-03-20T10:57:22.907Z,54.13
2023-03-20T10:59:51.704Z,52.76
2023-03-20T11:02:21.712Z,51.94
2023-03-20T11:04:48.141Z,52.08
2023-03-20T11:07:26.593Z,51.40
2023-03-20T11:10:11.549Z,52.18
2023-03-20T11:12:39.679Z,50.78
2023-03-20T11:15:22.602Z,51.64
2023-03-20T11:17:54.478Z,50.69
2023-03-20T11:20:21.129Z,51.52
2023-03-20T11:22:49.477Z,51.70
2023-03-20T11:25:38.423Z,50.66
2023-03-20T11:29:00.564Z,50.33
2023-03-20T11:31:40.782Z,50.62
2023-03-20T11:34:07.397Z,49.94
2023-03-20T11:36:36.655Z,50.72
2023-03-20T11:39:16.763Z,50.70
2023-03-20T11:41:45.891Z,49.38
2023-03-20T11:44:32.238Z,48.96
2023-03-20T11:47:11.381Z,49.06
2023-03-20T11:49:56.098Z,49.97
2023-03-20T11:52:48.963Z,49.86
2023-03-20T11:55:33.306Z,48.43
2023-03-20T11:58:01.744Z,48.25
2023-03-20T12:00:40.383Z,47.88
2023-03-20T12:03:34.857Z,47.74
2023-03-20T12:06:02.012Z,48.84
2023-03-20T12:08:31.780Z,48.04
2023-03-20T12:11:03.921Z,46.97
2023-03-20T12:13:35.661Z,46.49
2023-03-20T12:16:07.001Z,46.79
2023-03-20T12:18:41.282Z,47.58
2023-03-20T12:21:11.073Z,45.26
2023-03-20T12:23:43.810Z,44.48
2023-03-20T12:26:33.810Z,43.80
2023-03-20T12:29:27.544Z,44.25
2023-03-20T12:32:02.486Z,45.11
2023-03-20T12:34:44.326Z,42.96
2023-03-20T12:37:13.271Z,43.08
2023-03-20T12:39:53.561Z,43.63
2023-03-20T12:42:31.777Z,43.14
2023-03-20T12:45:04.085Z,43.25
2023-03-20T12:47:45.758Z,43.25
2023-03-20T12:50:24.880Z,44.27
2023-03-20T12:53:06.444Z,44.24
2023-03-20T12:55:42.294Z,44.35
2023-03-20T12:58:25.752Z,44.55
2023-03-20T13:01:20.679Z,44.37
2023-03-20T13:03:56.855Z,45.26
2023-03-20T13:06:29.481Z,44.49
2023-03-20T13:09:25.724Z,45.76
2023-03-20T13:12:23.049Z,45.88
2023-03-20T13:15:00.869Z,45.95
2023-03-20T13:17:37.209Z,44.94
2023-03-20T13:20:27.031Z,45.86
2023-03-20T13:23:10.925Z,45.79
2023-03-20T13:26:13.880Z,45.78
2023-03-20T13:29:01.365Z,46.44
2023-03-20T13:31:55.654Z,45.89
2023-03-20T13:34:31.806Z,45.65
2023-03-20T13:37:24.096Z,45.83
2023-03-20T13:40:06.110Z,45.32
2023-03-20T13:42:42.111Z,45.58
2023-03-20T13:45:32.142Z,45.15
2023-03-20T13:48:05.609Z,45.99
2023-03-20T13:50:43.161Z,44.66
2023-03-20T13:53:25.566Z,44.44
2023-03-20T13:55:55.806Z,44.40
2023-03-20T13:58:43.209Z,44.08
2023-03-20T14:01:32.253Z,44.52
2023-03-20T14:04:00.735Z,43.93
2023-03-20T14:06:27.811Z,43.94
2023-03-20T14:08:55.082Z,44.22
2023-03-20T14:11:21.482Z,44.57
2023-03-20T14:13:53.971Z,43.82
2023-03-20T14:16:20.737Z,43.84
2023-03-20T14:18:50.120Z,43.36
2023-03-20T14:21:23.485Z,43.97
2023-03-20T14:24:06.144Z,44.16
2023-03-20T14:26:37.852Z,44.51
2023-03-20T14:29:10.104Z,44.36
2023-03-20T14:31:38.493Z,44.54
2023-03-20T14:34:13.628Z,44.73
2023-03-20T14:37:00.994Z,44.33
2023-03-20T14:39:53.661Z,44.84
2023-03-20T14:42:58.869Z,44.47
2023-03-20T14:45:28.627Z,44.82
2023-03-20T14:48:17.001Z,45.45
2023-03-20T14:51:12.160Z,45.38
2023-03-20T14:53:40.943Z,44.83
2023-03-20T14:56:12.023Z,44.64
2023-03-20T14:58:57.941Z,44.67
2023-03-20T15:01:27.497Z,45.15
2023-03-20T15:03:59.579Z,44.88
2023-03-20T15:06:28.178Z,45.17
2023-03-20T15:09:00.742Z,45.63
2023-03-20T15:11:27.589Z,45.46
2023-03-20T15:13:55.447Z,45.45
2023-03-20T15:16:30.218Z,45.21
2023-03-20T15:18:57.490Z,45.07
2023-03-20T15:21:32.897Z,44.99
2023-03-20T15:23:59.842Z,45.92
2023-03-20T15:26:28.009Z,45.88
2023-03-20T15:29:16.661Z,46.02
2023-03-20T15:31:43.160Z,45.77
2023-03-20T15:34:17.303Z,45.86
2023-03-20T15:36:43.768Z,45.73
2023-03-20T15:39:17.557Z,45.97
2023-03-20T15:41:52.162Z,46.21
2023-03-20T15:44:25.113Z,46.24
2023-03-20T15:47:01.159Z,46.44
2023-03-20T15:49:30.507Z,46.72
2023-03-20T15:52:00.703Z,46.28
2023-03-20T15:54:27.200Z,46.47
2023-03-20T15:56:56.856Z,46.75
2023-03-20T15:59:27.397Z,46.59
2023-03-20T16:01:57.335Z,46.68
2023-03-20T16:04:24.110Z,45.26
2023-03-20T16:06:59.088Z,45.15
2023-03-20T16:09:26.604Z,44.37
2023-03-20T16:12:01.930Z,44.70
2023-03-20T16:14:31.805Z,43.93
2023-03-20T16:17:00.309Z,44.37
2023-03-20T16:19:29.109Z,44.80
2023-03-20T16:21:59.345Z,45.16
2023-03-20T16:24:29.891Z,44.82
2023-03-20T16:26:57.446Z,44.92
2023-03-20T16:29:27.451Z,45.16
2023-03-20T16:32:05.780Z,44.22
2023-03-20T16:34:35.677Z,44.73
2023-03-20T16:37:07.368Z,43.88
2023-03-20T16:39:33.927Z,44.48
2023-03-20T16:42:20.878Z,44.98
2023-03-20T16:44:47.465Z,45.31
2023-03-20T16:47:13.890Z,45.42
2023-03-20T16:49:55.502Z,46.17
2023-03-20T16:52:28.006Z,45.59
2023-03-20T16:54:57.424Z,45.73
2023-03-20T16:57:25.765Z,45.61
2023-03-20T16:59:57.441Z,46.01
2023-03-20T17:02:29.441Z,46.01
2023-03-20T17:05:01.287Z,46.21
2023-03-20T17:07:28.405Z,46.16
2023-03-20T17:09:59.687Z,46.24
2023-03-20T17:12:31.056Z,46.51
2023-03-20T17:14:57.906Z,46.48
2023-03-20T17:17:26.359Z,46.74
2023-03-20T17:19:53.140Z,47.04
2023-03-20T17:22:22.324Z,47.39
2023-03-20T17:24:49.421Z,47.49
2023-03-20T17:27:17.925Z,47.51
2023-03-20T17:29:46.148Z,47.77
2023-03-20T17:32:15.710Z,48.02
2023-03-20T17:34:42.921Z,48.02
2023-03-20T17:37:14.130Z,48.58
2023-03-20T17:39:41.090Z,48.58
2023-03-20T17:42:18.211Z,48.47
2023-03-20T17:44:45.059Z,48.35
2023-03-20T17:47:23.238Z,48.92
2023-03-20T17:49:51.923Z,49.91
2023-03-20T17:52:20.196Z,49.32
2023-03-20T17:54:47.024Z,50.03
2023-03-20T17:57:30.934Z,50.42
2023-03-20T17:59:57.475Z,50.04
2023-03-20T18:02:24.022Z,50.37
2023-03-20T18:04:51.002Z,50.25
2023-03-20T18:07:18.632Z,50.23
2023-03-20T18:09:46.167Z,50.13
2023-03-20T18:12:15.760Z,50.23
2023-03-20T18:14:43.150Z,50.36
2023-03-20T18:17:12.819Z,50.59
2023-03-20T18:19:39.963Z,50.97
2023-03-20T18:22:07.029Z,51.45
2023-03-20T18:24:33.647Z,51.14
2023-03-20T18:27:00.671Z,51.26
2023-03-20T18:29:27.716Z,51.63
2023-03-20T18:31:54.167Z,52.31
2023-03-20T18:34:21.191Z,51.99
2023-03-20T18:36:47.798Z,52.05
2023-03-20T18:39:23.028Z,52.29
2023-03-20T18:41:49.829Z,52.33
2023-03-20T18:44:16.273Z,52.62
2023-03-20T18:46:42.938Z,53.37
2023-03-20T18:49:15.937Z,53.20
2023-03-20T18:51:42.818Z,52.94
2023-03-20T18:54:09.299Z,53.16
2023-03-20T18:56:37.780Z,52.94
2023-03-20T18:59:07.709Z,52.81
2023-03-20T19:01:35.305Z,53.04
2023-03-20T19:04:02.000Z,53.40
2023-03-20T19:06:31.909Z,53.66
2023-03-20T19:08:58.445Z,54.43
2023-03-20T19:11:25.118Z,54.41
2023-03-20T19:13:53.214Z,54.28
2023-03-20T19:16:23.273Z,54.40
2023-03-20T19:18:51.029Z,54.75
2023-03-20T19:21:18.007Z,54.47
2023-03-20T19:23:44.848Z,54.89
2023-03-20T19:26:19.475Z,55.29
2023-03-20T19:28:46.585Z,55.56
2023-03-20T19:31:13.102Z,55.32
2023-03-20T19:33:39.929Z,55.76
2023-03-20T19:36:16.575Z,56.27
2023-03-20T19:38:43.209Z,56.68
2023-03-20T19:41:09.811Z,56.15
2023-03-20T19:43:49.733Z,56.07
2023-03-20T19:46:37.767Z,56.82
2023-03-20T19:49:05.952Z,56.05
2023-03-20T19:51:32.741Z,55.85
2023-03-20T19:53:59.161Z,55.71
2023-03-20T19:56:25.616Z,56.10
2023-03-20T19:58:52.396Z,56.18
2023-03-20T20:01:25.167Z,55.73
2023-03-20T20:03:53.604Z,56.31
2023-03-20T20:06:22.461Z,56.08
2023-03-20T20:08:50.540Z,56.50
2023-03-20T20:11:21.334Z,57.06
2023-03-20T20:14:05.591Z,57.26
2023-03-20T20:16:39.001Z,58.25
2023-03-20T20:19:05.812Z,59.08
2023-03-20T20:24:19.143Z,59.24
2023-03-20T20:26:56.757Z,58.73
2023-03-20T20:29:33.894Z,59.18
2023-03-20T20:32:00.517Z,59.47
2023-03-20T20:38:02.815Z,58.66
2023-03-20T20:40:00.592Z,58.41
2023-03-20T20:42:27.189Z,58.72
2023-03-20T20:44:53.582Z,58.86
2023-03-20T20:47:20.049Z,58.17
2023-03-20T20:49:47.248Z,58.14
2023-03-20T20:52:15.546Z,58.06
2023-03-20T20:54:42.185Z,58.14
2023-03-20T20:57:11.932Z,58.28
2023-03-20T20:59:40.125Z,58.19
2023-03-20T21:02:11.654Z,58.34
2023-03-20T21:04:40.220Z,59.09
2023-03-20T21:07:10.364Z,59.12
2023-03-20T21:09:38.471Z,59.90
2023-03-20T21:12:05.923Z,60.09
2023-03-20T21:14:32.357Z,60.64
2023-03-20T21:17:02.197Z,61.29
2023-03-20T21:19:37.664Z,60.99
2023-03-20T21:22:06.129Z,60.81
2023-03-20T21:24:34.831Z,60.88
2023-03-20T21:27:04.091Z,59.98
2023-03-20T21:29:30.790Z,60.84
2023-03-20T21:31:57.348Z,61.92
2023-03-20T21:34:23.884Z,61.33
2023-03-20T21:36:51.439Z,62.08
2023-03-20T21:39:18.885Z,62.89
2023-03-20T21:41:45.306Z,63.18
2023-03-20T21:44:16.982Z,63.12
2023-03-20T21:50:23.585Z,63.05
2023-03-20T21:56:05.764Z,61.88
2023-03-20T21:58:36.616Z,61.70
2023-03-20T22:04:31.957Z,62.91
2023-03-20T22:07:05.949Z,63.80
2023-03-20T22:12:48.640Z,64.62
2023-03-20T22:15:23.017Z,64.63
2023-03-20T22:29:14.759Z,63.08
2023-03-20T22:45:11.552Z,64.30
2023-03-20T22:47:38.305Z,64.88
2023-03-20T22:50:05.357Z,64.95
2023-03-20T22:52:45.906Z,64.59
2023-03-20T22:55:15.679Z,65.10
2023-03-20T22:57:50.201Z,64.28
2023-03-20T23:00:27.065Z,63.16
2023-03-20T23:02:57.420Z,64.42
2023-03-20T23:05:29.808Z,64.38
2023-03-20T23:07:56.514Z,65.45
2023-03-20T23:10:24.031Z,66.55
2023-03-20T23:12:50.434Z,64.58
2023-03-20T23:15:17.134Z,64.33
2023-03-20T23:17:43.902Z,63.22
2023-03-20T23:20:14.946Z,62.75
2023-03-20T23:22:43.321Z,64.32
2023-03-20T23:25:20.913Z,63.93
2023-03-20T23:27:53.962Z,63.09
2023-03-20T23:30:20.757Z,62.66
2023-03-20T23:32:48.250Z,62.08
2023-03-20T23:35:14.703Z,63.35
2023-03-20T23:37:41.086Z,63.15
2023-03-20T23:40:08.847Z,63.79
2023-03-20T23:42:35.417Z,64.86
2023-03-20T23:45:13.200Z,64.27
2023-03-20T23:47:46.589Z,64.56
2023-03-20T23:50:20.798Z,65.93
2023-03-20T23:53:03.500Z,65.63
2023-03-20T23:55:36.153Z,66.75
2023-03-20T23:58:03.047Z,66.27
